Fabre, Canada
Current Conditions -  °F | °C
As of 8:08 PM on Friday 24 Oct 2014 (Local Time) from CYXR Reporting Station
Overcast Overcast  
Wind Chill: 50°   Ceiling: 2000
Heat Index: 50°   Visibility: 9mi
Dew Point: 43°   Wind: 10mph
Humidity: 76%   Direction: 240°WSW
Pressure: 29.84"   Gusts: NA
Location:  47.2°N, 79.37°W
Report Text: CYXR 250008Z AUTO 24009KT 9SM BKN020 OVC037 10/06 A2984 RMK SLP116
Loading
Personal Weather Stations






























Interactive Weather Map
Tropical Storm Tracking
New forecast layout! Learn more

10-Day Weather Forecast

Advertisements
Track Severe Weather on mobile